Time;durP1;ratioP1;P1;durP2;ratioP2;P2;SDS_P1;SDS_P2;PMS_P1;PMS_P2;Temp;Humidity;BMP_temperature;BMP_pressure;BME280_temperature;BME280_humidity;BME280_pressure;Samples;Min_cycle;Max_cycle;Signal;HPM_P1;HPM_P2
2021/08/01 00:01:50;;;;;;;;;4.00;4.00;;;;;;;;5001495;28;46905;-89
2021/08/01 00:04:15;;;;;;;;;7.50;5.25;;;;;;;;5001859;28;46975;-89
2021/08/01 00:06:41;;;;;;;;;4.75;4.25;;;;;;;;5001420;28;46966;-91
2021/08/01 00:09:06;;;;;;;;;7.75;5.75;;;;;;;;4983709;28;47101;-88
2021/08/01 00:11:31;;;;;;;;;5.75;5.00;;;;;;;;5001413;28;46931;-89
2021/08/01 00:13:57;;;;;;;;;9.00;6.00;;;;;;;;5001500;28;47009;-89
2021/08/01 00:16:23;;;;;;;;;5.00;5.00;;;;;;;;4983690;28;46921;-89
2021/08/01 00:18:48;;;;;;;;;7.75;6.50;;;;;;;;5001522;28;47041;-89
2021/08/01 00:21:13;;;;;;;;;4.00;4.00;;;;;;;;5000806;28;47023;-89
2021/08/01 00:23:40;;;;;;;;;4.25;4.00;;;;;;;;5001198;28;46910;-89
2021/08/01 00:26:05;;;;;;;;;8.00;5.25;;;;;;;;5000694;28;46834;-89
2021/08/01 00:28:31;;;;;;;;;7.00;6.00;;;;;;;;4983344;28;48497;-89
2021/08/01 00:30:59;;;;;;;;;5.75;5.00;;;;;;;;5000897;28;46794;-89
2021/08/01 00:33:24;;;;;;;;;7.75;5.75;;;;;;;;4983317;28;47105;-89
2021/08/01 00:35:50;;;;;;;;;5.00;5.00;;;;;;;;5001084;28;46965;-90
2021/08/01 00:38:15;;;;;;;;;7.00;6.00;;;;;;;;5000848;28;47052;-89
2021/08/01 00:40:40;;;;;;;;;5.75;5.00;;;;;;;;5000914;28;46999;-88
2021/08/01 00:43:06;;;;;;;;;5.25;3.75;;;;;;;;5001063;28;46992;-89
2021/08/01 00:45:31;;;;;;;;;6.00;6.00;;;;;;;;5001061;28;46925;-88
2021/08/01 00:47:56;;;;;;;;;7.50;5.00;;;;;;;;5000686;28;47898;-88
2021/08/01 00:50:22;;;;;;;;;7.00;5.75;;;;;;;;4982906;28;47002;-88
2021/08/01 00:52:49;;;;;;;;;5.00;5.00;;;;;;;;5000637;28;47004;-88
2021/08/01 00:55:15;;;;;;;;;8.00;7.00;;;;;;;;5000247;28;46774;-88
2021/08/01 00:57:40;;;;;;;;;6.50;6.50;;;;;;;;5000641;28;47912;-88
2021/08/01 01:00:13;;;;;;;;;6.50;5.75;;;;;;;;5000459;28;46874;-89
2021/08/01 01:02:39;;;;;;;;;4.75;4.75;;;;;;;;4982985;28;47038;-89
2021/08/01 01:05:17;;;;;;;;;9.00;7.50;;;;;;;;5000664;28;46873;-88
2021/08/01 01:07:45;;;;;;;;;7.00;7.00;;;;;;;;5000392;28;46962;-89
2021/08/01 01:10:37;;;;;;;;;7.25;7.25;;;;;;;;5000623;28;47040;-89
2021/08/01 01:13:13;;;;;;;;;7.00;7.00;;;;;;;;4997119;28;46877;-89
2021/08/01 01:15:46;;;;;;;;;9.00;7.00;;;;;;;;5000651;28;46878;-90
2021/08/01 01:18:20;;;;;;;;;7.00;7.00;;;;;;;;5000187;28;46861;-89
2021/08/01 01:21:04;;;;;;;;;5.25;5.00;;;;;;;;5000206;28;47068;-89
2021/08/01 01:23:46;;;;;;;;;7.75;6.50;;;;;;;;5000248;28;46861;-88
2021/08/01 01:26:33;;;;;;;;;6.00;6.00;;;;;;;;5010589;28;47061;-89
2021/08/01 01:29:05;;;;;;;;;8.25;6.00;;;;;;;;4999236;28;47104;-89
2021/08/01 01:31:38;;;;;;;;;6.50;5.25;;;;;;;;5000111;28;47081;-89
2021/08/01 01:34:06;;;;;;;;;6.50;5.25;;;;;;;;5000158;28;46925;-89
2021/08/01 01:36:33;;;;;;;;;7.25;6.00;;;;;;;;5000215;28;47054;-89
2021/08/01 01:39:00;;;;;;;;;8.25;6.75;;;;;;;;5000011;28;47749;-89
2021/08/01 01:41:26;;;;;;;;;6.50;5.50;;;;;;;;5000046;28;46924;-89
2021/08/01 01:43:52;;;;;;;;;6.25;5.25;;;;;;;;4977041;28;46891;-89
2021/08/01 01:46:18;;;;;;;;;5.75;4.50;;;;;;;;5004273;28;47194;-88
2021/08/01 01:48:44;;;;;;;;;6.75;6.00;;;;;;;;5001727;28;47282;-88
2021/08/01 01:51:10;;;;;;;;;7.25;6.00;;;;;;;;5005725;28;47209;-90
2021/08/01 01:53:36;;;;;;;;;6.75;5.00;;;;;;;;5019458;28;46987;-88
2021/08/01 01:56:02;;;;;;;;;6.00;5.75;;;;;;;;5020085;28;47116;-90
2021/08/01 01:58:28;;;;;;;;;7.00;6.00;;;;;;;;5019207;28;46857;-90
2021/08/01 02:00:53;;;;;;;;;6.00;5.25;;;;;;;;5019618;28;47048;-88
2021/08/01 02:03:18;;;;;;;;;5.75;5.75;;;;;;;;5019600;28;46852;-89
2021/08/01 02:05:44;;;;;;;;;6.00;6.00;;;;;;;;5000687;28;47040;-88
2021/08/01 02:08:10;;;;;;;;;5.75;5.00;;;;;;;;5019022;28;48205;-89
2021/08/01 02:10:38;;;;;;;;;6.00;5.00;;;;;;;;5017821;28;46962;-88
2021/08/01 02:13:05;;;;;;;;;5.50;5.00;;;;;;;;4999324;28;46851;-89
2021/08/01 02:15:40;;;;;;;;;6.00;5.00;;;;;;;;4981898;28;47063;-89
2021/08/01 02:18:11;;;;;;;;;6.00;5.00;;;;;;;;4999750;28;46957;-88
2021/08/01 02:20:41;;;;;;;;;7.25;4.25;;;;;;;;4999308;28;46846;-88
2021/08/01 02:23:08;;;;;;;;;4.50;4.50;;;;;;;;4981336;28;46921;-88
2021/08/01 02:25:34;;;;;;;;;4.00;4.00;;;;;;;;4981579;28;47113;-88
2021/08/01 02:28:01;;;;;;;;;4.25;3.00;;;;;;;;4999180;28;47787;-89
2021/08/01 02:30:27;;;;;;;;;5.50;4.25;;;;;;;;4999151;28;47020;-89
2021/08/01 02:32:54;;;;;;;;;5.00;5.00;;;;;;;;4998691;28;46835;-88
2021/08/01 02:35:20;;;;;;;;;5.00;4.00;;;;;;;;4999229;28;46763;-88
2021/08/01 02:37:45;;;;;;;;;7.25;6.25;;;;;;;;4998873;28;47714;-89
2021/08/01 02:40:11;;;;;;;;;6.00;5.00;;;;;;;;4999023;28;46997;-88
2021/08/01 02:42:37;;;;;;;;;5.50;4.75;;;;;;;;4999142;28;46959;-88
2021/08/01 02:45:03;;;;;;;;;6.00;6.00;;;;;;;;4974741;28;47026;-89
2021/08/01 02:47:30;;;;;;;;;6.00;5.00;;;;;;;;5018805;28;47059;-89
2021/08/01 02:49:56;;;;;;;;;6.75;5.25;;;;;;;;5018778;28;46783;-88
2021/08/01 02:52:30;;;;;;;;;6.25;6.00;;;;;;;;5015775;28;46846;-91
2021/08/01 02:54:56;;;;;;;;;6.25;4.75;;;;;;;;4999291;28;46804;-89
2021/08/01 02:57:23;;;;;;;;;5.00;4.50;;;;;;;;4998520;28;47683;-89
2021/08/01 02:59:49;;;;;;;;;4.50;4.00;;;;;;;;4981023;28;47045;-89
2021/08/01 03:02:14;;;;;;;;;3.00;3.00;;;;;;;;4998811;28;46878;-89
2021/08/01 03:04:40;;;;;;;;;4.00;4.00;;;;;;;;4999150;28;46965;-89
2021/08/01 03:07:10;;;;;;;;;7.50;5.50;;;;;;;;4998373;28;47238;-89
2021/08/01 03:09:36;;;;;;;;;7.75;5.50;;;;;;;;4998890;28;47156;-89
2021/08/01 03:12:08;;;;;;;;;6.00;5.00;;;;;;;;4998913;28;46831;-89
2021/08/01 03:14:33;;;;;;;;;4.50;4.50;;;;;;;;4998707;28;47018;-89
2021/08/01 03:16:58;;;;;;;;;5.00;5.00;;;;;;;;4998173;28;47038;-89
2021/08/01 03:19:24;;;;;;;;;6.25;5.50;;;;;;;;4998643;28;47108;-89
2021/08/01 03:21:49;;;;;;;;;8.00;4.75;;;;;;;;4998217;28;46930;-89
2021/08/01 03:24:14;;;;;;;;;6.75;6.00;;;;;;;;4998864;28;46760;-89
2021/08/01 03:26:40;;;;;;;;;7.00;7.00;;;;;;;;4980601;28;46921;-90
2021/08/01 03:29:05;;;;;;;;;8.25;6.50;;;;;;;;4998205;28;46788;-89
2021/08/01 03:31:30;;;;;;;;;6.00;5.00;;;;;;;;4980799;28;47062;-89
2021/08/01 03:33:55;;;;;;;;;6.50;4.00;;;;;;;;4998452;28;47207;-89
2021/08/01 03:36:21;;;;;;;;;6.00;5.00;;;;;;;;4998112;28;47020;-89
2021/08/01 03:38:46;;;;;;;;;5.00;5.00;;;;;;;;4998143;28;46889;-89
2021/08/01 03:41:11;;;;;;;;;6.75;5.00;;;;;;;;4998553;28;46803;-89
2021/08/01 03:43:37;;;;;;;;;5.00;5.00;;;;;;;;4998267;28;47051;-89
2021/08/01 03:46:02;;;;;;;;;4.75;4.75;;;;;;;;4998254;28;46938;-89
2021/08/01 03:48:27;;;;;;;;;7.00;5.00;;;;;;;;4998207;28;47112;-89
2021/08/01 03:50:53;;;;;;;;;5.25;5.00;;;;;;;;4998061;28;46871;-89
2021/08/01 03:53:18;;;;;;;;;4.00;3.25;;;;;;;;4997833;28;46847;-89
2021/08/01 03:55:43;;;;;;;;;7.00;5.00;;;;;;;;4997832;28;47816;-89
2021/08/01 03:58:09;;;;;;;;;5.25;5.00;;;;;;;;4998041;28;46768;-89
2021/08/01 04:00:34;;;;;;;;;6.50;5.50;;;;;;;;4998044;28;46879;-90
2021/08/01 04:02:59;;;;;;;;;7.00;6.00;;;;;;;;4998474;28;46784;-89
2021/08/01 04:05:24;;;;;;;;;3.00;3.00;;;;;;;;4997847;28;47848;-89
2021/08/01 04:07:50;;;;;;;;;8.50;6.00;;;;;;;;4997782;28;46923;-90
2021/08/01 04:10:15;;;;;;;;;9.00;6.50;;;;;;;;4998071;28;46949;-91
2021/08/01 04:12:40;;;;;;;;;5.25;5.25;;;;;;;;4998231;28;46989;-90
2021/08/01 04:15:06;;;;;;;;;5.50;5.50;;;;;;;;4997081;28;47051;-90
2021/08/01 04:17:32;;;;;;;;;8.50;7.00;;;;;;;;4998030;28;46918;-90
2021/08/01 04:19:57;;;;;;;;;4.50;4.50;;;;;;;;4997960;28;47000;-91
2021/08/01 04:22:23;;;;;;;;;7.50;5.50;;;;;;;;4997679;28;47030;-90
2021/08/01 04:24:48;;;;;;;;;6.75;5.50;;;;;;;;4997788;28;47674;-90
2021/08/01 04:27:13;;;;;;;;;5.25;4.25;;;;;;;;4997549;28;46966;-90
2021/08/01 04:29:38;;;;;;;;;6.50;5.75;;;;;;;;4999860;28;46909;-91
2021/08/01 04:32:04;;;;;;;;;5.50;5.00;;;;;;;;4992549;28;46987;-90
2021/08/01 04:34:29;;;;;;;;;6.00;6.00;;;;;;;;4978454;28;48272;-89
2021/08/01 04:36:54;;;;;;;;;4.00;4.00;;;;;;;;5000535;28;46914;-89
2021/08/01 04:39:20;;;;;;;;;4.50;4.00;;;;;;;;5000939;28;47033;-90
2021/08/01 04:41:45;;;;;;;;;6.75;6.75;;;;;;;;4983509;28;46787;-90
2021/08/01 04:44:10;;;;;;;;;6.50;5.50;;;;;;;;5000585;28;47885;-90
2021/08/01 04:46:37;;;;;;;;;9.00;6.00;;;;;;;;5000848;28;46910;-90
2021/08/01 04:49:02;;;;;;;;;7.00;6.00;;;;;;;;4983142;28;46984;-90
2021/08/01 04:51:27;;;;;;;;;6.50;6.25;;;;;;;;5000866;28;47193;-89
2021/08/01 04:53:52;;;;;;;;;9.25;7.00;;;;;;;;5004064;28;46874;-90
2021/08/01 04:56:18;;;;;;;;;5.75;5.00;;;;;;;;5008111;28;46947;-89
2021/08/01 04:58:43;;;;;;;;;6.50;5.00;;;;;;;;5000383;28;46906;-91
2021/08/01 05:01:12;;;;;;;;;5.00;5.00;;;;;;;;5000939;28;46906;-90
2021/08/01 05:03:38;;;;;;;;;8.25;6.25;;;;;;;;4982817;28;49379;-90
2021/08/01 05:06:03;;;;;;;;;7.75;6.00;;;;;;;;4982573;28;46965;-90
2021/08/01 05:08:28;;;;;;;;;6.00;6.00;;;;;;;;5000561;28;47094;-90
2021/08/01 05:10:54;;;;;;;;;8.25;5.75;;;;;;;;5000813;28;47388;-90
2021/08/01 05:13:19;;;;;;;;;7.00;6.00;;;;;;;;5000288;28;47583;-90
2021/08/01 05:15:44;;;;;;;;;7.50;7.00;;;;;;;;5000290;28;46915;-90
2021/08/01 05:18:10;;;;;;;;;5.50;5.00;;;;;;;;4998621;28;46883;-90
2021/08/01 05:20:40;;;;;;;;;6.00;5.25;;;;;;;;4982832;28;46841;-90
2021/08/01 05:23:05;;;;;;;;;10.00;7.75;;;;;;;;4987460;28;48522;-90
2021/08/01 05:25:30;;;;;;;;;7.25;5.00;;;;;;;;4982204;28;46998;-89
2021/08/01 05:27:56;;;;;;;;;5.75;5.75;;;;;;;;5000431;28;47087;-89
2021/08/01 05:30:21;;;;;;;;;5.75;4.25;;;;;;;;5000316;28;47252;-89
2021/08/01 05:32:46;;;;;;;;;6.00;5.00;;;;;;;;5000317;28;47720;-90
2021/08/01 05:35:11;;;;;;;;;6.50;6.25;;;;;;;;4999965;28;47071;-90
2021/08/01 05:37:37;;;;;;;;;6.50;4.00;;;;;;;;4999321;28;46937;-90
2021/08/01 05:40:02;;;;;;;;;4.50;4.00;;;;;;;;4999936;28;47360;-90
2021/08/01 05:42:28;;;;;;;;;6.00;6.00;;;;;;;;5000062;28;47973;-90
2021/08/01 05:44:53;;;;;;;;;3.25;3.25;;;;;;;;5000008;28;46894;-89
2021/08/01 05:47:18;;;;;;;;;4.25;4.25;;;;;;;;5000138;28;46938;-89
2021/08/01 05:49:44;;;;;;;;;4.75;4.00;;;;;;;;5000099;28;47096;-90
2021/08/01 05:52:09;;;;;;;;;5.00;4.00;;;;;;;;4999666;28;47011;-90
2021/08/01 05:54:34;;;;;;;;;4.00;4.00;;;;;;;;5013045;28;47002;-90
2021/08/01 05:57:00;;;;;;;;;6.00;4.00;;;;;;;;5000040;28;47004;-90
2021/08/01 05:59:25;;;;;;;;;6.25;3.00;;;;;;;;4999040;28;47093;-91
2021/08/01 06:01:51;;;;;;;;;6.00;3.75;;;;;;;;4991035;28;47702;-91
2021/08/01 06:04:16;;;;;;;;;3.50;3.00;;;;;;;;5016084;28;46827;-90
2021/08/01 06:06:41;;;;;;;;;6.75;4.00;;;;;;;;5019531;28;46912;-89
2021/08/01 06:09:07;;;;;;;;;3.75;3.75;;;;;;;;5000904;28;47232;-89
2021/08/01 06:11:32;;;;;;;;;4.00;3.00;;;;;;;;5010525;28;47611;-90
2021/08/01 06:13:57;;;;;;;;;2.25;2.25;;;;;;;;5010141;28;46974;-89
2021/08/01 06:16:22;;;;;;;;;5.00;3.75;;;;;;;;4999306;28;46903;-82
2021/08/01 06:18:48;;;;;;;;;5.00;4.00;;;;;;;;5006528;28;47374;-83
2021/08/01 06:21:14;;;;;;;;;4.00;3.50;;;;;;;;5016055;28;46892;-82
2021/08/01 06:23:42;;;;;;;;;4.00;4.00;;;;;;;;4999281;28;46954;-82
2021/08/01 06:26:07;;;;;;;;;5.00;3.50;;;;;;;;4994225;28;47156;-82
2021/08/01 06:28:33;;;;;;;;;5.50;2.50;;;;;;;;4999381;28;47005;-82
2021/08/01 06:31:01;;;;;;;;;3.75;3.75;;;;;;;;5010631;28;47083;-83
2021/08/01 06:33:27;;;;;;;;;3.00;3.00;;;;;;;;5004720;28;46974;-83
2021/08/01 06:35:52;;;;;;;;;5.00;5.00;;;;;;;;4985294;28;47035;-83
2021/08/01 06:38:18;;;;;;;;;2.75;2.75;;;;;;;;5002934;28;46909;-83
2021/08/01 06:40:43;;;;;;;;;2.50;2.50;;;;;;;;4999208;28;46951;-83
2021/08/01 06:43:08;;;;;;;;;3.00;3.00;;;;;;;;4977593;28;47485;-83
2021/08/01 06:45:34;;;;;;;;;2.00;2.00;;;;;;;;5004829;28;46803;-83
2021/08/01 06:47:59;;;;;;;;;4.25;4.00;;;;;;;;5018957;28;47215;-83
2021/08/01 06:50:25;;;;;;;;;2.50;2.50;;;;;;;;5018590;28;47701;-81
2021/08/01 06:52:50;;;;;;;;;3.00;2.50;;;;;;;;4985380;28;47229;-82
2021/08/01 06:55:15;;;;;;;;;5.50;2.75;;;;;;;;4980225;28;47012;-82
2021/08/01 06:57:40;;;;;;;;;4.25;3.25;;;;;;;;4998182;28;47306;-82
2021/08/01 07:00:06;;;;;;;;;2.00;2.00;;;;;;;;4975960;28;48439;-81
2021/08/01 07:02:32;;;;;;;;;3.25;2.75;;;;;;;;4998550;28;47681;-81
2021/08/01 07:04:58;;;;;;;;;5.00;2.75;;;;;;;;4998526;28;46883;-81
2021/08/01 07:07:24;;;;;;;;;4.75;3.50;;;;;;;;4998221;28;47148;-81
2021/08/01 07:09:50;;;;;;;;;4.25;2.00;;;;;;;;4989180;28;46949;-81
2021/08/01 07:12:16;;;;;;;;;4.00;3.00;;;;;;;;4996616;28;46780;-81
2021/08/01 07:14:42;;;;;;;;;2.00;2.00;;;;;;;;4980651;28;46941;-81
2021/08/01 07:17:07;;;;;;;;;4.00;3.00;;;;;;;;4979395;28;47188;-82
2021/08/01 07:19:33;;;;;;;;;2.75;2.00;;;;;;;;4988524;28;46959;-82
2021/08/01 07:21:58;;;;;;;;;4.25;2.75;;;;;;;;5001007;28;46822;-83
2021/08/01 07:24:24;;;;;;;;;2.75;2.75;;;;;;;;4998157;28;46882;-83
2021/08/01 07:26:52;;;;;;;;;3.00;3.00;;;;;;;;4994438;28;46822;-83
2021/08/01 07:29:17;;;;;;;;;4.50;2.50;;;;;;;;4980258;28;49243;-83
2021/08/01 07:31:43;;;;;;;;;3.25;3.25;;;;;;;;4998353;28;46990;-82
2021/08/01 07:34:11;;;;;;;;;3.00;3.00;;;;;;;;4997314;28;47217;-82
2021/08/01 07:36:36;;;;;;;;;3.00;3.00;;;;;;;;4997122;28;47011;-83
2021/08/01 07:39:02;;;;;;;;;4.00;3.00;;;;;;;;4997526;28;48236;-81
2021/08/01 07:41:27;;;;;;;;;3.00;3.00;;;;;;;;4997761;28;46823;-81
2021/08/01 07:43:52;;;;;;;;;3.00;3.00;;;;;;;;4980132;28;46909;-82
2021/08/01 07:46:18;;;;;;;;;6.00;3.25;;;;;;;;4998512;28;46962;-81
2021/08/01 07:48:44;;;;;;;;;3.00;2.00;;;;;;;;5002155;28;47672;-80
2021/08/01 07:51:09;;;;;;;;;4.50;3.50;;;;;;;;4988598;28;46958;-81
2021/08/01 07:53:35;;;;;;;;;2.50;2.00;;;;;;;;4997918;28;47002;-81
2021/08/01 07:56:00;;;;;;;;;2.50;2.50;;;;;;;;5005844;28;47122;-82
2021/08/01 07:58:26;;;;;;;;;2.75;2.75;;;;;;;;4997129;28;47554;-82
2021/08/01 08:00:51;;;;;;;;;3.00;3.00;;;;;;;;5000428;28;46895;-82
2021/08/01 08:03:17;;;;;;;;;2.00;2.00;;;;;;;;4991811;28;47244;-82
2021/08/01 08:05:42;;;;;;;;;3.00;3.00;;;;;;;;4996348;28;47330;-82
2021/08/01 08:08:08;;;;;;;;;2.75;2.75;;;;;;;;5001175;28;47028;-82
2021/08/01 08:10:33;;;;;;;;;2.25;2.25;;;;;;;;5004281;28;46995;-82
2021/08/01 08:12:59;;;;;;;;;2.50;2.50;;;;;;;;5011092;28;47092;-82
2021/08/01 08:15:24;;;;;;;;;3.00;2.00;;;;;;;;5001088;28;47059;-82
2021/08/01 08:17:50;;;;;;;;;2.00;2.00;;;;;;;;4998453;28;46933;-82
2021/08/01 08:20:15;;;;;;;;;3.00;3.00;;;;;;;;4997625;28;46784;-82
2021/08/01 08:22:40;;;;;;;;;2.00;2.00;;;;;;;;5000521;28;46815;-82
2021/08/01 08:25:06;;;;;;;;;2.00;1.75;;;;;;;;5000888;28;46814;-82
2021/08/01 08:27:32;;;;;;;;;2.50;2.50;;;;;;;;5000447;28;48883;-82
2021/08/01 08:29:57;;;;;;;;;1.50;1.50;;;;;;;;5001145;28;46838;-82
2021/08/01 08:32:22;;;;;;;;;3.25;2.50;;;;;;;;5000806;28;47378;-82
2021/08/01 08:34:48;;;;;;;;;2.00;1.00;;;;;;;;5003203;28;47192;-82
2021/08/01 08:37:13;;;;;;;;;3.00;2.00;;;;;;;;4983123;28;48154;-82
2021/08/01 08:39:40;;;;;;;;;4.00;2.25;;;;;;;;5008469;28;46826;-81
2021/08/01 08:42:05;;;;;;;;;3.25;1.00;;;;;;;;5001028;28;46968;-81
2021/08/01 08:44:31;;;;;;;;;2.00;2.00;;;;;;;;5001022;28;46940;-81
2021/08/01 08:46:56;;;;;;;;;2.00;2.00;;;;;;;;5000704;28;47789;-80
2021/08/01 08:49:22;;;;;;;;;1.75;1.75;;;;;;;;4999277;28;47035;-79
2021/08/01 08:51:49;;;;;;;;;2.00;2.00;;;;;;;;4995341;28;46914;-80
2021/08/01 08:54:16;;;;;;;;;1.00;1.00;;;;;;;;5018820;28;47161;-79
2021/08/01 08:56:42;;;;;;;;;2.00;2.00;;;;;;;;5000438;28;47900;-80
2021/08/01 08:59:09;;;;;;;;;2.00;2.00;;;;;;;;5009117;28;46922;-80
2021/08/01 09:01:38;;;;;;;;;3.00;3.00;;;;;;;;4996901;28;47016;-79
2021/08/01 09:04:05;;;;;;;;;2.00;2.00;;;;;;;;4996500;28;46969;-79
2021/08/01 09:06:30;;;;;;;;;4.25;2.75;;;;;;;;4994920;28;46867;-79
2021/08/01 09:08:56;;;;;;;;;2.00;1.75;;;;;;;;4980917;28;47881;-79
2021/08/01 09:11:21;;;;;;;;;6.25;3.00;;;;;;;;4999336;28;47140;-80
2021/08/01 09:13:54;;;;;;;;;2.75;2.75;;;;;;;;5000145;28;47228;-79
2021/08/01 09:16:21;;;;;;;;;1.75;1.75;;;;;;;;4999442;28;46912;-79
2021/08/01 09:18:47;;;;;;;;;3.00;3.00;;;;;;;;5000446;28;47104;-79
2021/08/01 09:21:31;;;;;;;;;1.50;1.50;;;;;;;;4999544;28;47016;-80
2021/08/01 09:23:56;;;;;;;;;2.75;2.00;;;;;;;;5000435;28;47242;-80
2021/08/01 09:26:21;;;;;;;;;2.25;1.25;;;;;;;;5000018;28;47825;-80
2021/08/01 09:29:03;;;;;;;;;4.00;3.75;;;;;;;;4999906;28;46991;-81
2021/08/01 09:31:29;;;;;;;;;3.00;2.00;;;;;;;;5000143;28;46989;-80
2021/08/01 09:33:54;;;;;;;;;2.00;2.00;;;;;;;;4994721;28;46918;-80
2021/08/01 09:36:21;;;;;;;;;1.50;1.50;;;;;;;;4999130;28;48064;-79
2021/08/01 09:38:47;;;;;;;;;2.50;2.50;;;;;;;;4999991;28;46940;-79
2021/08/01 09:41:15;;;;;;;;;3.50;2.25;;;;;;;;4999824;28;47096;-80
2021/08/01 09:43:46;;;;;;;;;1.00;1.00;;;;;;;;5000137;28;46949;-80
2021/08/01 09:46:11;;;;;;;;;3.50;2.75;;;;;;;;4991837;28;47060;-80
2021/08/01 09:48:37;;;;;;;;;3.00;2.25;;;;;;;;4999775;28;47153;-80
2021/08/01 09:51:04;;;;;;;;;4.50;3.75;;;;;;;;4999501;28;46910;-79
2021/08/01 09:53:31;;;;;;;;;3.75;2.75;;;;;;;;4999744;28;47205;-79
2021/08/01 09:56:09;;;;;;;;;6.75;4.00;;;;;;;;4981973;28;49191;-80
2021/08/01 09:58:36;;;;;;;;;4.75;4.50;;;;;;;;4994475;28;47138;-80
2021/08/01 10:01:01;;;;;;;;;2.00;1.75;;;;;;;;4993216;28;46796;-80
2021/08/01 10:03:34;;;;;;;;;3.50;3.25;;;;;;;;4999834;28;46837;-80
2021/08/01 10:06:08;;;;;;;;;3.75;3.25;;;;;;;;5005524;28;47903;-80
2021/08/01 10:08:38;;;;;;;;;3.50;2.75;;;;;;;;5005205;28;46889;-80
2021/08/01 10:11:27;;;;;;;;;5.50;2.75;;;;;;;;5008428;28;46824;-80
2021/08/01 10:13:55;;;;;;;;;0.75;0.75;;;;;;;;4965731;28;46938;-80
2021/08/01 10:16:22;;;;;;;;;4.25;2.50;;;;;;;;5011431;28;47074;-81
2021/08/01 10:18:49;;;;;;;;;1.75;1.50;;;;;;;;4993137;28;47091;-80
2021/08/01 10:21:17;;;;;;;;;1.25;1.00;;;;;;;;4980653;28;47128;-79
2021/08/01 10:23:44;;;;;;;;;0.75;0.75;;;;;;;;4987385;28;47252;-80
2021/08/01 10:26:10;;;;;;;;;4.25;3.00;;;;;;;;4997972;28;47250;-78
2021/08/01 10:28:39;;;;;;;;;2.00;2.00;;;;;;;;5005646;28;47102;-78
2021/08/01 10:31:07;;;;;;;;;3.75;2.00;;;;;;;;5003452;28;47135;-79
2021/08/01 10:33:38;;;;;;;;;2.50;1.50;;;;;;;;4996582;28;47158;-78
2021/08/01 10:36:05;;;;;;;;;2.00;1.00;;;;;;;;5006483;28;47872;-79
2021/08/01 10:38:32;;;;;;;;;3.00;1.00;;;;;;;;4997951;28;47271;-79
2021/08/01 10:40:58;;;;;;;;;3.25;1.00;;;;;;;;4998791;28;47224;-79
2021/08/01 10:43:29;;;;;;;;;1.00;1.00;;;;;;;;4981133;28;47037;-79
2021/08/01 10:45:55;;;;;;;;;1.50;1.50;;;;;;;;4998873;28;46937;-79
2021/08/01 10:48:25;;;;;;;;;2.75;1.25;;;;;;;;4998737;28;47143;-80
2021/08/01 10:50:51;;;;;;;;;1.75;1.00;;;;;;;;4999554;28;46853;-79
2021/08/01 10:53:23;;;;;;;;;1.25;1.25;;;;;;;;5007912;28;46798;-80
2021/08/01 10:55:50;;;;;;;;;1.25;1.25;;;;;;;;4997993;28;47969;-80
2021/08/01 10:58:16;;;;;;;;;1.00;1.00;;;;;;;;4998222;28;47019;-80
2021/08/01 11:00:58;;;;;;;;;1.00;1.00;;;;;;;;4973648;28;47075;-79
2021/08/01 11:03:23;;;;;;;;;1.75;1.75;;;;;;;;4998503;28;47258;-80
2021/08/01 11:05:49;;;;;;;;;2.25;1.25;;;;;;;;4997474;28;47045;-80
2021/08/01 11:08:14;;;;;;;;;2.00;1.00;;;;;;;;4998130;28;47016;-80
2021/08/01 11:10:41;;;;;;;;;1.00;0.00;;;;;;;;4997556;28;47171;-80
2021/08/01 11:13:22;;;;;;;;;0.25;0.00;;;;;;;;4998182;28;47031;-80
2021/08/01 11:15:47;;;;;;;;;2.25;1.25;;;;;;;;4987269;28;47944;-79
2021/08/01 11:18:13;;;;;;;;;0.00;0.00;;;;;;;;5011330;28;47136;-79
2021/08/01 11:20:44;;;;;;;;;1.00;1.00;;;;;;;;4997567;28;47049;-79
2021/08/01 11:23:10;;;;;;;;;1.00;1.00;;;;;;;;4998498;28;46822;-79
2021/08/01 11:25:37;;;;;;;;;2.00;0.50;;;;;;;;4997644;28;47159;-80
2021/08/01 11:28:19;;;;;;;;;1.50;1.00;;;;;;;;4998303;28;47073;-79
2021/08/01 11:30:51;;;;;;;;;0.00;0.00;;;;;;;;4987370;28;46804;-79
2021/08/01 11:33:35;;;;;;;;;1.00;0.50;;;;;;;;4997728;28;46863;-79
2021/08/01 11:36:12;;;;;;;;;1.00;0.00;;;;;;;;4997246;28;46938;-78
2021/08/01 11:38:56;;;;;;;;;0.00;0.00;;;;;;;;5007849;28;46994;-79
2021/08/01 11:41:27;;;;;;;;;0.25;0.00;;;;;;;;5004452;28;46874;-79
2021/08/01 11:44:00;;;;;;;;;0.00;0.00;;;;;;;;5001971;28;47020;-79
2021/08/01 11:46:26;;;;;;;;;0.00;0.00;;;;;;;;5001068;28;47024;-79
2021/08/01 11:48:58;;;;;;;;;0.75;0.75;;;;;;;;5001439;28;47059;-78
2021/08/01 11:51:26;;;;;;;;;0.50;0.00;;;;;;;;5001167;28;47008;-79
2021/08/01 11:53:53;;;;;;;;;0.00;0.00;;;;;;;;5000914;28;46941;-78
2021/08/01 11:56:19;;;;;;;;;0.00;0.00;;;;;;;;5004463;28;47918;-78
2021/08/01 11:58:52;;;;;;;;;0.00;0.00;;;;;;;;5001137;28;47187;-79
2021/08/01 12:01:19;;;;;;;;;0.00;0.00;;;;;;;;5005455;28;47025;-78
2021/08/01 12:03:45;;;;;;;;;0.00;0.00;;;;;;;;5012380;28;47090;-78
2021/08/01 12:06:12;;;;;;;;;0.00;0.00;;;;;;;;5003724;28;47792;-77
2021/08/01 12:08:38;;;;;;;;;0.00;0.00;;;;;;;;5000041;28;47203;-78
2021/08/01 12:11:16;;;;;;;;;0.00;0.00;;;;;;;;5001562;28;46954;-78
2021/08/01 12:14:01;;;;;;;;;0.00;0.00;;;;;;;;4998288;28;47044;-78
2021/08/01 12:16:27;;;;;;;;;0.50;0.00;;;;;;;;5000804;28;47885;-79
2021/08/01 12:18:52;;;;;;;;;0.00;0.00;;;;;;;;5000938;28;46834;-78
2021/08/01 12:21:27;;;;;;;;;0.00;0.00;;;;;;;;4999096;28;47025;-78
2021/08/01 12:23:53;;;;;;;;;0.25;0.00;;;;;;;;4991125;28;46946;-78
2021/08/01 12:26:34;;;;;;;;;3.00;0.00;;;;;;;;5000599;28;48122;-79
2021/08/01 12:28:59;;;;;;;;;0.00;0.00;;;;;;;;4972932;28;47076;-78
2021/08/01 12:31:29;;;;;;;;;1.50;0.75;;;;;;;;4998726;28;46830;-78
2021/08/01 12:33:54;;;;;;;;;0.00;0.00;;;;;;;;4993629;28;47140;-78
2021/08/01 12:36:30;;;;;;;;;0.00;0.00;;;;;;;;5000487;28;47123;-79
2021/08/01 12:38:56;;;;;;;;;0.00;0.00;;;;;;;;5000248;28;47077;-79
2021/08/01 12:41:22;;;;;;;;;0.00;0.00;;;;;;;;4983215;28;46900;-78
2021/08/01 12:43:48;;;;;;;;;0.75;0.50;;;;;;;;5000985;28;46776;-79
2021/08/01 12:46:19;;;;;;;;;0.25;0.25;;;;;;;;5000840;28;47006;-79
2021/08/01 12:48:48;;;;;;;;;3.00;3.00;;;;;;;;4995721;28;47285;-78
2021/08/01 12:51:14;;;;;;;;;2.00;0.75;;;;;;;;4997527;28;46855;-78
2021/08/01 12:53:39;;;;;;;;;1.00;1.00;;;;;;;;4979406;28;47037;-79
2021/08/01 12:56:05;;;;;;;;;2.00;1.00;;;;;;;;5013104;28;47963;-79
2021/08/01 12:58:38;;;;;;;;;1.50;1.00;;;;;;;;4982684;28;47066;-79
2021/08/01 13:01:08;;;;;;;;;0.00;0.00;;;;;;;;4989214;28;46937;-79
2021/08/01 13:03:37;;;;;;;;;0.00;0.00;;;;;;;;5000720;28;46994;-79
2021/08/01 13:06:03;;;;;;;;;2.50;1.00;;;;;;;;4999860;28;47963;-79
2021/08/01 13:08:36;;;;;;;;;0.00;0.00;;;;;;;;4982017;28;47021;-79
2021/08/01 13:11:01;;;;;;;;;0.00;0.00;;;;;;;;5000429;28;46954;-79
2021/08/01 13:13:27;;;;;;;;;0.50;0.00;;;;;;;;5000848;28;46922;-79
2021/08/01 13:15:52;;;;;;;;;0.00;0.00;;;;;;;;4982340;28;48436;-79
2021/08/01 13:18:22;;;;;;;;;0.50;0.50;;;;;;;;4999941;28;46792;-79
2021/08/01 13:20:48;;;;;;;;;1.00;1.00;;;;;;;;4998488;28;46915;-79
2021/08/01 13:23:32;;;;;;;;;7.00;2.75;;;;;;;;4997465;28;46964;-79
2021/08/01 13:25:58;;;;;;;;;4.00;1.00;;;;;;;;4996028;28;48889;-79
2021/08/01 13:28:42;;;;;;;;;1.25;0.25;;;;;;;;4999818;28;47134;-79
2021/08/01 13:31:11;;;;;;;;;0.00;0.00;;;;;;;;4982365;28;47088;-79
2021/08/01 13:33:36;;;;;;;;;1.00;0.75;;;;;;;;5000132;28;47073;-79
2021/08/01 13:36:02;;;;;;;;;1.50;1.00;;;;;;;;4999060;28;47815;-79
2021/08/01 13:38:27;;;;;;;;;0.25;0.00;;;;;;;;5000021;28;46872;-79
2021/08/01 13:40:52;;;;;;;;;1.00;1.00;;;;;;;;4980684;28;47207;-79
2021/08/01 13:43:20;;;;;;;;;0.75;0.75;;;;;;;;4998762;28;47102;-80
2021/08/01 13:45:45;;;;;;;;;1.25;1.00;;;;;;;;4995117;28;49339;-79
2021/08/01 13:48:11;;;;;;;;;1.25;1.00;;;;;;;;4981807;28;47066;-85
2021/08/01 13:50:36;;;;;;;;;1.00;1.00;;;;;;;;5000865;28;47095;-80
2021/08/01 13:53:02;;;;;;;;;0.25;0.25;;;;;;;;4981494;28;47028;-79
2021/08/01 13:55:28;;;;;;;;;2.00;1.00;;;;;;;;4999537;28;47036;-79
2021/08/01 13:58:00;;;;;;;;;1.00;1.00;;;;;;;;5006855;28;47007;-79
2021/08/01 14:00:25;;;;;;;;;0.25;0.25;;;;;;;;4992524;28;46913;-79
2021/08/01 14:02:50;;;;;;;;;1.00;1.00;;;;;;;;4998842;28;47336;-79
2021/08/01 14:05:15;;;;;;;;;1.00;1.00;;;;;;;;4999408;28;47178;-79
2021/08/01 14:07:41;;;;;;;;;1.00;1.00;;;;;;;;4981610;28;47081;-78
2021/08/01 14:10:06;;;;;;;;;0.00;0.00;;;;;;;;4999347;28;46988;-79
2021/08/01 14:12:32;;;;;;;;;0.00;0.00;;;;;;;;4997931;28;46965;-80
2021/08/01 14:14:57;;;;;;;;;0.00;0.00;;;;;;;;4999311;28;47698;-79
2021/08/01 14:17:23;;;;;;;;;0.25;0.25;;;;;;;;4981690;28;47045;-79
2021/08/01 14:19:48;;;;;;;;;0.25;0.25;;;;;;;;4999056;28;47064;-80
2021/08/01 14:22:15;;;;;;;;;0.00;0.00;;;;;;;;4999288;28;46859;-79
2021/08/01 14:24:40;;;;;;;;;0.25;0.25;;;;;;;;4999125;28;47136;-79
2021/08/01 14:27:06;;;;;;;;;0.75;0.75;;;;;;;;4981475;28;47088;-80
2021/08/01 14:29:33;;;;;;;;;0.00;0.00;;;;;;;;4999200;28;46930;-80
2021/08/01 14:32:01;;;;;;;;;0.00;0.00;;;;;;;;4981847;28;46851;-79
2021/08/01 14:34:27;;;;;;;;;1.00;1.00;;;;;;;;5004679;28;47083;-79
2021/08/01 14:36:54;;;;;;;;;1.00;1.00;;;;;;;;5018678;28;47067;-80
2021/08/01 14:39:20;;;;;;;;;0.00;0.00;;;;;;;;4984178;28;47237;-80
2021/08/01 14:41:46;;;;;;;;;0.00;0.00;;;;;;;;4999614;28;46989;-80
2021/08/01 14:44:11;;;;;;;;;0.00;0.00;;;;;;;;4998787;28;47425;-80